Time,TemperatureF,DewpointF,PressureIn,WindDirection,WindDirectionDegrees,WindSpeedMPH,WindSpeedGustMPH,Humidity,HourlyPrecipIn,Conditions,Clouds,dailyrainin,SoftwareType,DateUTC
2013-06-06 00:05:00,45.0,27.0,29.90,North,5,2.0,-999.0,50,-99.99,,,0.00,weatherlink.com 1.10,2013-06-06 06:05:00,
2013-06-06 00:20:00,44.8,28.0,29.90,West,263,1.0,-999.0,52,-99.99,,,0.00,weatherlink.com 1.10,2013-06-06 06:20:00,
2013-06-06 00:35:00,44.5,31.0,29.89,WSW,238,3.0,-999.0,60,-99.99,,,0.00,weatherlink.com 1.10,2013-06-06 06:35:00,
2013-06-06 00:50:00,44.4,30.0,29.88,SW,225,5.0,-999.0,57,-99.99,,,0.00,weatherlink.com 1.10,2013-06-06 06:50:00,
2013-06-06 01:05:00,45.1,23.0,29.88,WSW,238,6.0,-999.0,42,-99.99,,,0.00,weatherlink.com 1.10,2013-06-06 07:05:00,
2013-06-06 01:21:00,45.2,25.0,29.88,SW,219,6.0,-999.0,45,-99.99,,,0.00,weatherlink.com 1.10,2013-06-06 07:21:00,
2013-06-06 01:36:00,44.7,25.0,29.87,SSW,207,6.0,-999.0,47,-99.99,,,0.00,weatherlink.com 1.10,2013-06-06 07:36:00,
2013-06-06 01:51:00,44.3,29.0,29.86,SSW,203,6.0,-999.0,56,-99.99,,,0.00,weatherlink.com 1.10,2013-06-06 07:51:00,
2013-06-06 02:06:00,44.9,27.0,29.86,SW,217,6.0,-999.0,49,-99.99,,,0.00,weatherlink.com 1.10,2013-06-06 08:06:00,
2013-06-06 02:21:00,45.2,23.0,29.86,SW,230,6.0,-999.0,42,-99.99,,,0.00,weatherlink.com 1.10,2013-06-06 08:21:00,
2013-06-06 02:37:00,45.9,21.0,29.85,SW,225,9.0,-999.0,38,-99.99,,,0.00,weatherlink.com 1.10,2013-06-06 08:37:00,
2013-06-06 02:52:00,45.8,21.0,29.84,SW,219,9.0,-999.0,38,-99.99,,,0.00,weatherlink.com 1.10,2013-06-06 08:52:00,
2013-06-06 03:07:00,45.6,21.0,29.84,SW,231,6.0,-999.0,38,-99.99,,,0.00,weatherlink.com 1.10,2013-06-06 09:07:00,
2013-06-06 03:22:00,45.8,21.0,29.84,SW,221,9.0,-999.0,37,-99.99,,,0.00,weatherlink.com 1.10,2013-06-06 09:22:00,
2013-06-06 03:37:00,45.9,20.0,29.84,SSW,211,8.0,-999.0,36,-99.99,,,0.00,weatherlink.com 1.10,2013-06-06 09:37:00,
2013-06-06 03:53:00,45.6,21.0,29.84,SW,215,10.0,-999.0,37,-99.99,,,0.00,weatherlink.com 1.10,2013-06-06 09:53:00,
2013-06-06 04:08:00,44.9,21.0,29.84,SSW,209,8.0,-999.0,38,-99.99,,,0.00,weatherlink.com 1.10,2013-06-06 10:08:00,
2013-06-06 04:23:00,44.3,21.0,29.84,SW,232,14.0,-999.0,39,-99.99,,,0.00,weatherlink.com 1.10,2013-06-06 10:23:00,
2013-06-06 04:38:00,44.7,21.0,29.84,WSW,237,11.0,-999.0,39,-99.99,,,0.00,weatherlink.com 1.10,2013-06-06 10:38:00,
2013-06-06 04:53:00,44.9,21.0,29.84,WSW,239,8.0,-999.0,38,-99.99,,,0.00,weatherlink.com 1.10,2013-06-06 10:53:00,
2013-06-06 05:08:00,45.0,21.0,29.84,West,265,11.0,-999.0,38,-99.99,,,0.00,weatherlink.com 1.10,2013-06-06 11:08:00,
2013-06-06 05:23:00,44.7,21.0,29.84,WSW,240,9.0,-999.0,39,-99.99,,,0.00,weatherlink.com 1.10,2013-06-06 11:23:00,
2013-06-06 05:39:00,44.9,22.0,29.84,West,265,10.0,-999.0,40,-99.99,,,0.00,weatherlink.com 1.10,2013-06-06 11:39:00,
2013-06-06 05:54:00,45.1,21.0,29.84,WNW,296,7.0,-999.0,39,-99.99,,,0.00,weatherlink.com 1.10,2013-06-06 11:54:00,
2013-06-06 06:09:00,45.0,22.0,29.85,NW,304,5.0,-999.0,40,-99.99,,,0.00,weatherlink.com 1.10,2013-06-06 12:09:00,
2013-06-06 06:24:00,45.1,22.0,29.85,WNW,298,6.0,-999.0,40,-99.99,,,0.00,weatherlink.com 1.10,2013-06-06 12:24:00,
2013-06-06 06:39:00,45.7,22.0,29.86,West,272,5.0,-999.0,39,-99.99,,,0.00,weatherlink.com 1.10,2013-06-06 12:39:00,
2013-06-06 06:54:00,45.7,22.0,29.85,WNW,294,8.0,-999.0,39,-99.99,,,0.00,weatherlink.com 1.10,2013-06-06 12:54:00,
2013-06-06 07:10:00,46.1,22.0,29.85,WNW,298,7.0,-999.0,39,-99.99,,,0.00,weatherlink.com 1.10,2013-06-06 13:10:00,
2013-06-06 07:25:00,46.1,23.0,29.86,NW,304,6.0,-999.0,40,-99.99,,,0.00,weatherlink.com 1.10,2013-06-06 13:25:00,
2013-06-06 07:40:00,47.0,24.0,29.85,NW,304,6.0,-999.0,40,-99.99,,,0.00,weatherlink.com 1.10,2013-06-06 13:40:00,
2013-06-06 07:55:00,48.1,25.0,29.86,WNW,290,5.0,-999.0,40,-99.99,,,0.00,weatherlink.com 1.10,2013-06-06 13:55:00,
2013-06-06 08:10:00,50.3,25.0,29.86,WNW,282,2.0,-999.0,38,-99.99,,,0.00,weatherlink.com 1.10,2013-06-06 14:10:00,
2013-06-06 08:26:00,51.2,26.0,29.86,North,5,1.0,-999.0,37,-99.99,,,0.00,weatherlink.com 1.10,2013-06-06 14:26:00,
2013-06-06 08:56:00,51.7,24.0,29.86,North,5,4.0,-999.0,34,-99.99,,,0.00,weatherlink.com 1.10,2013-06-06 14:56:00,
2013-06-06 09:11:00,52.6,23.0,29.86,North,5,5.0,-999.0,32,-99.99,,,0.00,weatherlink.com 1.10,2013-06-06 15:11:00,
2013-06-06 09:26:00,52.6,25.0,29.86,North,5,1.0,-999.0,34,-99.99,,,0.00,weatherlink.com 1.10,2013-06-06 15:26:00,
2013-06-06 09:43:00,53.0,24.0,29.86,NNE,32,0.0,-999.0,33,-99.99,,,0.00,weatherlink.com 1.10,2013-06-06 15:43:00,
2013-06-06 09:57:00,54.2,26.0,29.86,NNE,28,3.0,-999.0,34,-99.99,,,0.00,weatherlink.com 1.10,2013-06-06 15:57:00,
2013-06-06 10:12:00,52.9,26.0,29.85,NNW,347,6.0,-999.0,35,-99.99,,,0.00,weatherlink.com 1.10,2013-06-06 16:12:00,
2013-06-06 10:27:00,53.8,26.0,29.85,NNW,343,4.0,-999.0,34,-99.99,,,0.00,weatherlink.com 1.10,2013-06-06 16:27:00,
2013-06-06 10:42:00,54.6,26.0,29.84,North,360,6.0,-999.0,33,-99.99,,,0.00,weatherlink.com 1.10,2013-06-06 16:42:00,
2013-06-06 10:57:00,54.5,28.0,29.85,NNW,330,0.0,-999.0,36,-99.99,,,0.00,weatherlink.com 1.10,2013-06-06 16:57:00,
2013-06-06 11:13:00,55.5,27.0,29.84,North,355,4.0,-999.0,33,-99.99,,,0.00,weatherlink.com 1.10,2013-06-06 17:13:00,
2013-06-06 11:28:00,55.6,27.0,29.84,ENE,78,2.0,-999.0,34,-99.99,,,0.00,weatherlink.com 1.10,2013-06-06 17:28:00,
2013-06-06 11:43:00,56.1,28.0,29.85,NW,317,1.0,-999.0,34,-99.99,,,0.00,weatherlink.com 1.10,2013-06-06 17:43:00,
2013-06-06 11:58:00,56.3,27.0,29.84,WNW,294,3.0,-999.0,33,-99.99,,,0.00,weatherlink.com 1.10,2013-06-06 17:58:00,
2013-06-06 12:13:00,56.1,28.0,29.84,NNW,342,4.0,-999.0,34,-99.99,,,0.00,weatherlink.com 1.10,2013-06-06 18:13:00,
2013-06-06 12:28:00,56.9,27.0,29.84,NNW,341,2.0,-999.0,32,-99.99,,,0.00,weatherlink.com 1.10,2013-06-06 18:28:00,
2013-06-06 12:45:00,59.3,29.0,29.84,NE,35,4.0,-999.0,32,-99.99,,,0.00,weatherlink.com 1.10,2013-06-06 18:45:00,
2013-06-06 13:02:00,58.6,-99.9,29.78,NNE,25,4.0,-999.0,-999,-99.99,,,0.00,weatherlink.com 1.10,2013-06-06 19:02:00,
2013-06-06 13:17:00,58.4,27.0,29.79,West,261,0.0,-999.0,30,-99.99,,,0.00,weatherlink.com 1.10,2013-06-06 19:17:00,
2013-06-06 13:31:00,60.3,29.0,29.79,NNE,17,5.0,-999.0,31,-99.99,,,0.00,weatherlink.com 1.10,2013-06-06 19:31:00,
2013-06-06 13:43:00,61.2,29.0,29.80,NNW,332,2.0,-999.0,30,-99.99,,,0.00,weatherlink.com 1.10,2013-06-06 19:43:00,
2013-06-06 13:59:00,61.2,30.0,29.80,NW,306,2.0,-999.0,31,-99.99,,,0.00,weatherlink.com 1.10,2013-06-06 19:59:00,
2013-06-06 14:13:00,59.0,30.0,29.80,SSW,200,2.0,-999.0,33,-99.99,,,0.00,weatherlink.com 1.10,2013-06-06 20:13:00,
2013-06-06 14:29:00,61.1,28.0,29.80,North,360,5.0,-999.0,29,-99.99,,,0.00,weatherlink.com 1.10,2013-06-06 20:29:00,
2013-06-06 14:44:00,60.2,29.0,29.81,North,355,6.0,-999.0,31,-99.99,,,0.00,weatherlink.com 1.10,2013-06-06 20:44:00,
2013-06-06 14:59:00,60.6,29.0,29.81,NNW,345,2.0,-999.0,30,-99.99,,,0.00,weatherlink.com 1.10,2013-06-06 20:59:00,
2013-06-06 15:14:00,57.0,28.0,29.81,NNE,14,0.0,-999.0,33,-99.99,,,0.00,weatherlink.com 1.10,2013-06-06 21:14:00,
2013-06-06 15:29:00,58.2,30.0,29.81,NNE,14,2.0,-999.0,34,-99.99,,,0.00,weatherlink.com 1.10,2013-06-06 21:29:00,
2013-06-06 15:44:00,59.6,29.0,29.81,North,5,0.0,-999.0,31,-99.99,,,0.00,weatherlink.com 1.10,2013-06-06 21:44:00,
2013-06-06 16:00:00,58.9,29.0,29.81,NNE,15,1.0,-999.0,32,-99.99,,,0.00,weatherlink.com 1.10,2013-06-06 22:00:00,
2013-06-06 16:15:00,58.7,29.0,29.80,NNE,28,3.0,-999.0,32,-99.99,,,0.00,weatherlink.com 1.10,2013-06-06 22:15:00,
2013-06-06 16:30:00,59.3,29.0,29.80,East,90,1.0,-999.0,32,-99.99,,,0.00,weatherlink.com 1.10,2013-06-06 22:30:00,
2013-06-06 16:45:00,59.1,29.0,29.80,North,349,2.0,-999.0,32,-99.99,,,0.00,weatherlink.com 1.10,2013-06-06 22:45:00,
2013-06-06 17:00:00,59.6,28.0,29.80,NNE,16,3.0,-999.0,30,-99.99,,,0.00,weatherlink.com 1.10,2013-06-06 23:00:00,
2013-06-06 17:15:00,58.2,28.0,29.80,NNE,13,0.0,-999.0,32,-99.99,,,0.00,weatherlink.com 1.10,2013-06-06 23:15:00,
2013-06-06 17:31:00,57.9,28.0,29.80,NNE,18,1.0,-999.0,32,-99.99,,,0.00,weatherlink.com 1.10,2013-06-06 23:31:00,
2013-06-06 17:46:00,56.6,28.0,29.79,NNE,13,0.0,-999.0,33,-99.99,,,0.00,weatherlink.com 1.10,2013-06-06 23:46:00,
2013-06-06 18:01:00,56.8,29.0,29.79,North,5,3.0,-999.0,34,-99.99,,,0.00,weatherlink.com 1.10,2013-06-07 00:01:00,
2013-06-06 18:16:00,56.2,28.0,29.79,North,350,2.0,-999.0,34,-99.99,,,0.00,weatherlink.com 1.10,2013-06-07 00:16:00,
2013-06-06 18:31:00,55.2,27.0,29.80,NNW,339,3.0,-999.0,34,-99.99,,,0.00,weatherlink.com 1.10,2013-06-07 00:31:00,
2013-06-06 18:46:00,55.6,28.0,29.80,NNW,347,3.0,-999.0,35,-99.99,,,0.00,weatherlink.com 1.10,2013-06-07 00:46:00,
2013-06-06 19:02:00,55.1,28.0,29.80,North,349,3.0,-999.0,36,-99.99,,,0.00,weatherlink.com 1.10,2013-06-07 01:02:00,
2013-06-06 19:17:00,53.8,28.0,29.81,North,360,3.0,-999.0,37,-99.99,,,0.00,weatherlink.com 1.10,2013-06-07 01:17:00,
2013-06-06 19:32:00,53.1,28.0,29.81,NNW,344,3.0,-999.0,38,-99.99,,,0.00,weatherlink.com 1.10,2013-06-07 01:32:00,
2013-06-06 19:47:00,52.8,28.0,29.81,North,351,5.0,-999.0,39,-99.99,,,0.00,weatherlink.com 1.10,2013-06-07 01:47:00,
2013-06-06 20:02:00,52.8,29.0,29.81,NNE,24,4.0,-999.0,40,-99.99,,,0.00,weatherlink.com 1.10,2013-06-07 02:02:00,
2013-06-06 20:18:00,53.1,29.0,29.82,NNE,16,5.0,-999.0,40,-99.99,,,0.00,weatherlink.com 1.10,2013-06-07 02:18:00,
2013-06-06 20:33:00,52.9,29.0,29.81,NNE,24,4.0,-999.0,40,-99.99,,,0.00,weatherlink.com 1.10,2013-06-07 02:33:00,
2013-06-06 20:48:00,52.6,29.0,29.81,NNE,32,4.0,-999.0,41,-99.99,,,0.00,weatherlink.com 1.10,2013-06-07 02:48:00,
2013-06-06 21:03:00,52.5,29.0,29.80,NNE,31,9.0,-999.0,41,-99.99,,,0.00,weatherlink.com 1.10,2013-06-07 03:03:00,
2013-06-06 21:18:00,51.4,31.0,29.80,East,92,7.0,-999.0,45,-99.99,,,0.00,weatherlink.com 1.10,2013-06-07 03:18:00,
2013-06-06 21:35:00,-999.0,-99.9,29.81,North,-999,-999.0,-999.0,-999,-99.99,,,0.00,weatherlink.com 1.10,2013-06-07 03:35:00,
2013-06-06 21:46:00,-12.9,-99.9,0.00,North,65407,-999.0,-999.0,-999,-99.99,,,0.00,weatherlink.com 1.10,2013-06-07 03:46:00,
2013-06-06 22:01:00,-999.0,-99.9,29.80,North,-999,-999.0,-999.0,-999,-99.99,,,0.00,weatherlink.com 1.10,2013-06-07 04:01:00,
2013-06-06 22:17:00,48.8,32.0,29.80,South,170,4.0,-999.0,52,-99.99,,,0.00,weatherlink.com 1.10,2013-06-07 04:17:00,
2013-06-06 22:32:00,48.3,32.0,29.81,East,98,6.0,-999.0,53,-99.99,,,0.00,weatherlink.com 1.10,2013-06-07 04:32:00,
2013-06-06 22:47:00,48.0,32.0,29.81,ENE,71,4.0,-999.0,55,-99.99,,,0.00,weatherlink.com 1.10,2013-06-07 04:47:00,
2013-06-06 23:02:00,47.8,33.0,29.81,ENE,60,12.0,-999.0,57,-99.99,,,0.00,weatherlink.com 1.10,2013-06-07 05:02:00,
2013-06-06 23:17:00,47.6,33.0,29.81,ENE,71,6.0,-999.0,58,-99.99,,,0.00,weatherlink.com 1.10,2013-06-07 05:17:00,
2013-06-06 23:32:00,47.2,33.0,29.80,East,88,4.0,-999.0,58,-99.99,,,0.00,weatherlink.com 1.10,2013-06-07 05:32:00,
2013-06-06 23:48:00,46.9,33.0,29.80,ESE,123,7.0,-999.0,59,-99.99,,,0.00,weatherlink.com 1.10,2013-06-07 05:48:00,